»·PEaware :: USC243 KLAS-KRIF

USC243 :: KLAS-KRIF

FLIGHT INFORMATION

Flight Status: Arrived
Operator: Unknown
More flights by this operator :: More flights under this callsign
Pilot: Andy P. (22680)
Aircraft: GATES LEARJET LEARJET 35/36
(LJ35)
More flights by this aircraft type
Origin: KLAS McCarran Intl
United States
Destination: KRIF Richfield Mun
United States
More flights between these airports :: More routes between these airports
Route: TRALR9 TRALR DETAN
File this flight plan on PilotEdge
Remarks:
Altitude:
(Current/Filed)
27,000ft
Speed:
(Current/Filed)
465kts
Departed: 22-Sep-19 02:02 PM
Arrived: 22-Sep-19 02:54 PM
Distance/Time
Traveled:
216nm/0:52
Distance/Time
To Go:
Arrived

Flight Plot

Page will automatically refresh every two minutes.

Flight plan parsing failed; only flown route is shown


Map Options




Map Legend


Flown Route
Filed Route
Departure Airport
Arrival Airport
Navaid (VOR, NDB)
Fix

Horizontal Profiles

Position Reports

Time Latitude Longitude Heading Altitude Ground
Speed
22-Sep-19 13:39 36.082913 -115.125572 90 2183ft 0kts
22-Sep-19 13:40 36.082913 -115.125572 90 2184ft 0kts
22-Sep-19 13:41 36.082913 -115.125572 90 2184ft 0kts
22-Sep-19 13:42 36.082913 -115.125572 90 2184ft 0kts
22-Sep-19 13:43 36.082913 -115.125572 90 2184ft 0kts
22-Sep-19 13:44 36.082913 -115.125572 90 2184ft 0kts
22-Sep-19 13:45 36.082913 -115.125572 90 2184ft 0kts
22-Sep-19 13:46 36.082913 -115.125572 90 2184ft 0kts
22-Sep-19 13:47 36.082913 -115.125572 90 2184ft 0kts
22-Sep-19 13:47 36.082913 -115.125570 90 2184ft 0kts
22-Sep-19 13:48 36.082913 -115.125567 90 2184ft 0kts
22-Sep-19 13:50 36.082913 -115.125564 90 2184ft 0kts
22-Sep-19 13:51 36.082913 -115.125561 90 2184ft 0kts
22-Sep-19 13:51 36.082913 -115.125559 90 2184ft 0kts
22-Sep-19 13:52 36.082913 -115.125556 90 2184ft 0kts
22-Sep-19 13:54 36.082913 -115.125553 90 2184ft 0kts
22-Sep-19 13:54 36.082913 -115.125551 90 2184ft 0kts
22-Sep-19 13:55 36.082913 -115.125548 90 2184ft 0kts
22-Sep-19 13:56 36.082913 -115.125546 90 2184ft 0kts
22-Sep-19 13:57 36.082913 -115.125526 90 2184ft 2kts
22-Sep-19 13:58 36.081582 -115.126262 187 2184ft 14kts
22-Sep-19 13:59 36.078319 -115.124240 90 2184ft 15kts
22-Sep-19 14:00 36.076928 -115.121211 180 2184ft 10kts
22-Sep-19 14:01 36.076385 -115.132365 270 2184ft 127kts
22-Sep-19 14:02 36.076714 -115.195883 270 3636ft 209kts
22-Sep-19 14:03 36.056942 -115.259237 202 5591ft 229kts
22-Sep-19 14:04 35.995757 -115.292536 199 6657ft 239kts
22-Sep-19 14:05 35.932567 -115.287667 163 7639ft 237kts
22-Sep-19 14:06 35.873091 -115.253727 116 9352ft 240kts
22-Sep-19 14:07 35.865095 -115.163142 86 11182ft 299kts
22-Sep-19 14:08 35.866111 -115.047512 80 13087ft 375kts
22-Sep-19 14:09 35.928220 -114.935601 62 14818ft 423kts
22-Sep-19 14:10 35.980454 -114.803185 66 16804ft 433kts
22-Sep-19 14:11 36.031931 -114.667086 64 18303ft 443kts
22-Sep-19 14:12 36.085245 -114.528234 64 19453ft 451kts
22-Sep-19 14:13 36.139971 -114.385350 64 20973ft 465kts
22-Sep-19 14:14 36.196772 -114.239452 58 22579ft 478kts
22-Sep-19 14:15 36.306984 -114.149996 21 24015ft 486kts
22-Sep-19 14:16 36.429221 -114.074182 27 25252ft 497kts
22-Sep-19 14:17 36.550409 -113.987442 28 26427ft 506kts
22-Sep-19 14:18 36.672036 -113.899275 28 27062ft 499kts
22-Sep-19 14:19 36.790240 -113.813232 28 27072ft 486kts
22-Sep-19 14:20 36.906127 -113.728512 29 27069ft 480kts
22-Sep-19 14:21 37.021830 -113.643649 29 27070ft 482kts
22-Sep-19 14:22 37.137476 -113.558526 29 27067ft 482kts
22-Sep-19 14:23 37.252849 -113.473311 29 27075ft 482kts
22-Sep-19 14:24 37.368196 -113.387782 29 27110ft 481kts
22-Sep-19 14:25 37.483661 -113.301907 29 27138ft 481kts
22-Sep-19 14:26 37.598745 -113.215928 29 27154ft 480kts
22-Sep-19 14:27 37.713457 -113.129941 29 27158ft 481kts
22-Sep-19 14:28 37.824199 -113.046579 29 26869ft 415kts
22-Sep-19 14:29 37.917737 -112.976021 28 25190ft 390kts
22-Sep-19 14:30 38.018418 -112.899901 29 24347ft 461kts
22-Sep-19 14:31 38.132271 -112.813370 29 23260ft 479kts
22-Sep-19 14:32 38.247161 -112.725744 29 22171ft 479kts
22-Sep-19 14:33 38.359336 -112.639926 29 21070ft 465kts
22-Sep-19 14:34 38.454799 -112.528457 44 19980ft 465kts
22-Sep-19 14:35 38.545951 -112.411731 43 18886ft 465kts
22-Sep-19 14:36 38.636566 -112.296798 42 17772ft 447kts
22-Sep-19 14:37 38.723867 -112.185790 43 16674ft 440kts
22-Sep-19 14:38 38.811050 -112.074577 43 15576ft 444kts
22-Sep-19 14:39 38.896551 -111.965111 43 14475ft 426kts
22-Sep-19 14:40 38.977750 -111.860753 44 13364ft 364kts
22-Sep-19 14:41 39.039260 -111.781985 41 12698ft 262kts
22-Sep-19 14:42 39.091341 -111.724221 38 12744ft 244kts
22-Sep-19 14:43 39.137108 -111.718676 252 12720ft 216kts
22-Sep-19 14:44 39.080562 -111.732356 211 12741ft 220kts
22-Sep-19 14:45 39.034611 -111.784380 223 12772ft 207kts
22-Sep-19 14:46 38.990902 -111.832558 220 11844ft 217kts
22-Sep-19 14:47 38.943650 -111.883350 220 10532ft 222kts
22-Sep-19 14:48 38.896744 -111.933762 219 9260ft 217kts
22-Sep-19 14:49 38.851591 -111.982235 219 8072ft 198kts
22-Sep-19 14:50 38.816697 -112.019785 219 7118ft 146kts
22-Sep-19 14:51 38.785820 -112.052993 219 6381ft 148kts
22-Sep-19 14:52 38.755728 -112.085898 221 5584ft 137kts
22-Sep-19 14:53 38.734805 -112.100017 163 5304ft 0kts
22-Sep-19 14:54 38.742223 -112.095538 23 5304ft 32kts
22-Sep-19 14:55 38.743385 -112.097550 270 5304ft 0kts
22-Sep-19 14:56 38.743385 -112.097551 270 5304ft 0kts
22-Sep-19 14:57 38.743385 -112.097551 270 5304ft 0kts
22-Sep-19 14:58 38.743385 -112.097551 270 5304ft 0kts
22-Sep-19 14:59 38.743385 -112.097551 270 5304ft 0kts
22-Sep-19 15:00 38.743385 -112.097551 270 5304ft 0kts
22-Sep-19 15:01 38.743385 -112.097551 270 5304ft 0kts
22-Sep-19 15:02 38.743385 -112.097551 270 5304ft 0kts
22-Sep-19 15:03 38.743385 -112.097551 270 5304ft 0kts
22-Sep-19 15:04 38.743385 -112.097551 270 5304ft 0kts
22-Sep-19 15:05 38.743385 -112.097551 270 5304ft 0kts
22-Sep-19 15:06 38.743385 -112.097551 270 5304ft 0kts
22-Sep-19 15:07 38.743385 -112.097551 270 5304ft 0kts

Navigation Log

Ident Type
Flight plan parsing failed, navigation log unavailable